createdAt,value
2023-05-05T00:00:57.694Z,14.88
2023-05-05T00:03:25.794Z,14.84
2023-05-05T00:05:54.451Z,14.75
2023-05-05T00:08:22.129Z,14.72
2023-05-05T00:10:50.253Z,14.65
2023-05-05T00:13:16.935Z,14.64
2023-05-05T00:15:45.142Z,14.70
2023-05-05T00:18:12.120Z,14.64
2023-05-05T00:20:38.548Z,14.63
2023-05-05T00:23:05.210Z,14.65
2023-05-05T00:25:31.772Z,14.67
2023-05-05T00:27:58.391Z,14.67
2023-05-05T00:30:24.904Z,14.72
2023-05-05T00:32:51.427Z,14.68
2023-05-05T00:35:18.444Z,14.72
2023-05-05T00:37:45.015Z,14.75
2023-05-05T00:40:12.444Z,14.74
2023-05-05T00:42:44.764Z,14.72
2023-05-05T00:45:12.776Z,14.65
2023-05-05T00:47:41.494Z,14.58
2023-05-05T00:50:09.425Z,14.52
2023-05-05T00:52:37.061Z,14.50
2023-05-05T00:55:07.162Z,14.49
2023-05-05T00:57:35.632Z,14.53
2023-05-05T01:00:02.833Z,14.53
2023-05-05T01:02:31.246Z,14.55
2023-05-05T01:04:58.470Z,14.60
2023-05-05T01:07:47.023Z,14.64
2023-05-05T01:10:36.414Z,14.68
2023-05-05T01:13:33.861Z,14.70
2023-05-05T01:16:03.418Z,14.72
2023-05-05T01:18:45.791Z,14.70
2023-05-05T01:21:27.025Z,14.73
2023-05-05T01:24:17.898Z,14.77
2023-05-05T01:27:10.593Z,14.85
2023-05-05T01:29:55.100Z,14.92
2023-05-05T01:32:30.811Z,14.93
2023-05-05T01:35:04.320Z,15.00
2023-05-05T01:37:43.526Z,15.05
2023-05-05T01:40:12.388Z,15.08
2023-05-05T01:42:42.578Z,15.10
2023-05-05T01:45:11.550Z,15.18
2023-05-05T01:47:39.984Z,15.19
2023-05-05T01:50:08.594Z,15.23
2023-05-05T01:52:37.516Z,15.25
2023-05-05T01:55:06.527Z,15.26
2023-05-05T01:57:33.308Z,15.27
2023-05-05T02:00:06.106Z,15.30
2023-05-05T02:02:34.980Z,15.31
2023-05-05T02:05:04.994Z,15.32
2023-05-05T02:07:33.562Z,15.33
2023-05-05T02:10:02.299Z,15.37
2023-05-05T02:12:31.218Z,15.41
2023-05-05T02:15:02.629Z,15.45
2023-05-05T02:17:30.534Z,15.49
2023-05-05T02:19:58.981Z,15.53
2023-05-05T02:22:25.560Z,15.51
2023-05-05T02:24:52.454Z,15.43
2023-05-05T02:27:20.858Z,15.40
2023-05-05T02:29:58.619Z,15.36
2023-05-05T02:32:33.623Z,15.36
2023-05-05T02:35:18.670Z,15.31
2023-05-05T02:37:50.943Z,15.22
2023-05-05T02:40:24.680Z,15.14
2023-05-05T02:42:54.417Z,15.09
2023-05-05T02:45:23.110Z,15.08
2023-05-05T02:47:49.559Z,15.04
2023-05-05T02:50:16.201Z,14.96
2023-05-05T02:52:43.183Z,14.87
2023-05-05T02:55:10.994Z,14.74
2023-05-05T02:57:56.201Z,14.70
2023-05-05T03:00:45.651Z,14.66
2023-05-05T03:03:18.362Z,14.57
2023-05-05T03:05:53.712Z,14.38
2023-05-05T03:09:02.026Z,14.25
2023-05-05T03:11:59.613Z,14.17
2023-05-05T03:14:29.551Z,14.13
2023-05-05T03:16:57.501Z,14.05
2023-05-05T03:19:25.447Z,13.98
2023-05-05T03:21:52.448Z,13.96
2023-05-05T03:24:20.081Z,13.92
2023-05-05T03:26:48.104Z,13.89
2023-05-05T03:29:15.119Z,13.83
2023-05-05T03:31:42.035Z,13.80
2023-05-05T03:34:08.915Z,13.72
2023-05-05T03:36:36.315Z,13.70
2023-05-05T03:39:03.601Z,13.71
2023-05-05T03:41:30.102Z,13.67
2023-05-05T03:43:56.699Z,13.64
2023-05-05T03:46:23.247Z,13.62
2023-05-05T03:48:49.633Z,13.59
2023-05-05T03:51:16.423Z,13.56
2023-05-05T03:53:42.808Z,13.49
2023-05-05T03:56:09.415Z,13.46
2023-05-05T03:58:36.067Z,13.43
2023-05-05T04:01:02.447Z,13.42
2023-05-05T04:03:28.902Z,13.45
2023-05-05T04:05:55.902Z,13.42
2023-05-05T04:08:22.462Z,13.41
2023-05-05T04:10:48.835Z,13.39
2023-05-05T04:13:15.350Z,13.36
2023-05-05T04:15:48.213Z,13.32
2023-05-05T04:18:14.757Z,13.34
2023-05-05T04:20:41.393Z,13.31
2023-05-05T04:23:07.837Z,13.26
2023-05-05T04:25:34.482Z,13.24
2023-05-05T04:28:00.996Z,13.23
2023-05-05T04:30:27.417Z,13.25
2023-05-05T04:32:53.890Z,13.23
2023-05-05T04:35:20.434Z,13.24
2023-05-05T04:37:46.837Z,13.21
2023-05-05T04:40:13.374Z,13.19
2023-05-05T04:42:39.801Z,13.23
2023-05-05T04:45:07.033Z,13.25
2023-05-05T04:47:37.849Z,13.25
2023-05-05T04:50:04.640Z,13.27
2023-05-05T04:52:31.121Z,13.27
2023-05-05T04:54:58.137Z,13.28
2023-05-05T04:57:24.561Z,13.27
2023-05-05T04:59:51.105Z,13.25
2023-05-05T05:02:17.590Z,13.29
2023-05-05T05:04:44.135Z,13.28
2023-05-05T05:07:10.723Z,13.26
2023-05-05T05:09:37.778Z,13.27
2023-05-05T05:12:04.807Z,13.27
2023-05-05T05:14:36.993Z,13.26
2023-05-05T05:17:03.654Z,13.34
2023-05-05T05:19:30.150Z,13.40
2023-05-05T05:21:56.542Z,13.43
2023-05-05T05:24:23.144Z,13.50
2023-05-05T05:26:49.626Z,13.54
2023-05-05T05:29:16.186Z,13.60
2023-05-05T05:31:42.633Z,13.64
2023-05-05T05:34:10.747Z,13.69
2023-05-05T05:36:39.336Z,13.75
2023-05-05T05:39:05.768Z,13.82
2023-05-05T05:41:32.753Z,13.88
2023-05-05T05:43:59.142Z,13.96
2023-05-05T05:46:25.704Z,14.03
2023-05-05T05:48:53.100Z,14.07
2023-05-05T05:51:19.515Z,14.11
2023-05-05T05:53:46.095Z,14.20
2023-05-05T05:56:12.667Z,14.24
2023-05-05T05:58:40.544Z,14.31
2023-05-05T06:01:07.060Z,14.38
2023-05-05T06:03:34.037Z,14.49
2023-05-05T06:06:01.369Z,14.57
2023-05-05T06:08:27.928Z,14.65
2023-05-05T06:10:54.373Z,14.76
2023-05-05T06:13:21.436Z,14.82
2023-05-05T06:15:47.960Z,14.91
2023-05-05T06:18:14.471Z,15.02
2023-05-05T06:20:40.897Z,15.11
2023-05-05T06:23:07.352Z,15.19
2023-05-05T06:25:33.903Z,15.31
2023-05-05T06:28:00.557Z,15.42
2023-05-05T06:30:27.224Z,15.50
2023-05-05T06:32:54.301Z,15.57
2023-05-05T06:35:22.317Z,15.66
2023-05-05T06:37:48.797Z,15.72
2023-05-05T06:40:15.330Z,15.80
2023-05-05T06:42:41.836Z,15.89
2023-05-05T06:45:09.116Z,15.93
2023-05-05T06:47:36.003Z,16.01
2023-05-05T06:50:02.559Z,16.10
2023-05-05T06:52:28.981Z,16.16
2023-05-05T06:54:55.685Z,16.24
2023-05-05T06:57:22.051Z,16.33
2023-05-05T06:59:48.493Z,16.38
2023-05-05T07:02:15.057Z,16.44
2023-05-05T07:04:41.708Z,16.50
2023-05-05T07:07:08.205Z,16.54
2023-05-05T07:09:34.620Z,16.56
2023-05-05T07:12:02.003Z,16.65
2023-05-05T07:14:28.477Z,16.74
2023-05-05T07:16:55.136Z,16.76
2023-05-05T07:19:22.286Z,16.80
2023-05-05T07:21:48.714Z,16.83
2023-05-05T07:24:15.221Z,16.85
2023-05-05T07:26:41.906Z,16.83
2023-05-05T07:29:08.423Z,16.78
2023-05-05T07:31:35.006Z,16.87
2023-05-05T07:34:01.567Z,17.00
2023-05-05T07:36:28.427Z,17.06
2023-05-05T07:38:54.976Z,17.12
2023-05-05T07:41:21.546Z,17.14
2023-05-05T07:43:48.032Z,17.25
2023-05-05T07:46:14.874Z,17.36
2023-05-05T07:48:41.969Z,17.51
2023-05-05T07:51:09.310Z,17.55
2023-05-05T07:53:35.777Z,17.54
2023-05-05T07:56:02.531Z,17.57
2023-05-05T07:58:29.030Z,17.63
2023-05-05T08:00:55.489Z,17.75
2023-05-05T08:03:24.374Z,17.90
2023-05-05T08:05:54.077Z,17.98
2023-05-05T08:08:24.378Z,18.04
2023-05-05T08:10:52.016Z,18.07
2023-05-05T08:13:18.672Z,18.23
2023-05-05T08:15:45.731Z,18.33
2023-05-05T08:18:12.259Z,18.47
2023-05-05T08:20:38.719Z,18.54
2023-05-05T08:23:05.298Z,18.47
2023-05-05T08:25:31.810Z,18.61
2023-05-05T08:27:58.201Z,18.81
2023-05-05T08:30:24.671Z,18.98
2023-05-05T08:32:51.263Z,19.06
2023-05-05T08:35:18.305Z,19.09
2023-05-05T08:37:45.102Z,19.07
2023-05-05T08:40:15.698Z,19.00
2023-05-05T08:42:42.401Z,19.01
2023-05-05T08:45:10.254Z,18.98
2023-05-05T08:47:38.548Z,18.96
2023-05-05T08:50:05.969Z,19.05
2023-05-05T08:52:40.341Z,19.14
2023-05-05T08:55:15.405Z,19.20
2023-05-05T08:57:50.392Z,19.20
2023-05-05T09:00:18.981Z,19.16
2023-05-05T09:02:47.082Z,19.18
2023-05-05T09:05:14.185Z,19.17
2023-05-05T09:07:44.224Z,19.14
2023-05-05T09:10:12.225Z,19.15
2023-05-05T09:12:42.008Z,19.20
2023-05-05T09:15:14.026Z,19.23
2023-05-05T09:17:41.967Z,19.33
2023-05-05T09:20:13.473Z,19.33
2023-05-05T09:22:45.270Z,19.32
2023-05-05T09:25:21.698Z,19.36
2023-05-05T09:27:49.348Z,19.45
2023-05-05T09:30:17.795Z,19.48
2023-05-05T09:32:45.855Z,19.62
2023-05-05T09:35:12.925Z,19.65
2023-05-05T09:37:39.459Z,19.59
2023-05-05T09:40:09.074Z,19.50
2023-05-05T09:42:39.764Z,19.45
2023-05-05T09:45:18.297Z,19.32
2023-05-05T09:47:46.336Z,19.21
2023-05-05T09:50:18.633Z,19.14
2023-05-05T09:52:56.448Z,19.15
2023-05-05T09:55:24.250Z,19.21
2023-05-05T09:57:51.237Z,19.28
2023-05-05T10:00:17.968Z,19.31
2023-05-05T10:02:44.658Z,19.28
2023-05-05T10:05:20.040Z,19.35
2023-05-05T10:07:48.083Z,19.31
2023-05-05T10:10:18.447Z,19.23
2023-05-05T10:12:49.814Z,19.12
2023-05-05T10:15:17.014Z,19.00
2023-05-05T10:18:05.087Z,18.00
2023-05-05T10:20:33.556Z,16.89
2023-05-05T10:23:02.597Z,16.07
2023-05-05T10:25:33.575Z,15.64
2023-05-05T10:28:04.370Z,15.18
2023-05-05T10:30:31.959Z,15.01
2023-05-05T10:33:31.638Z,14.90
2023-05-05T10:36:02.367Z,14.72
2023-05-05T10:38:32.687Z,14.63
2023-05-05T10:41:02.160Z,14.57
2023-05-05T10:43:30.835Z,14.63
2023-05-05T10:45:58.238Z,14.62
2023-05-05T10:48:36.300Z,14.49
2023-05-05T10:51:38.719Z,14.35
2023-05-05T10:54:23.077Z,14.08
2023-05-05T10:56:51.138Z,13.93
2023-05-05T10:59:37.857Z,13.86
2023-05-05T11:02:24.690Z,13.76
2023-05-05T11:05:06.991Z,13.79
2023-05-05T11:07:34.406Z,13.84
2023-05-05T11:10:02.871Z,13.87
2023-05-05T11:12:31.303Z,13.82
2023-05-05T11:15:27.348Z,13.92
2023-05-05T11:17:55.416Z,13.95
2023-05-05T11:20:36.938Z,13.99
2023-05-05T11:23:03.380Z,14.05
2023-05-05T11:25:36.555Z,14.07
2023-05-05T11:28:11.895Z,14.07
2023-05-05T11:30:59.802Z,14.07
2023-05-05T11:33:30.396Z,14.11
2023-05-05T11:36:04.168Z,14.10
2023-05-05T11:38:37.666Z,14.06
2023-05-05T11:41:10.161Z,14.06
2023-05-05T11:43:36.787Z,14.09
2023-05-05T11:46:17.075Z,14.07
2023-05-05T11:48:47.859Z,14.04
2023-05-05T11:51:18.329Z,14.01
2023-05-05T11:53:46.774Z,13.99
2023-05-05T11:56:33.961Z,14.00
2023-05-05T11:59:10.812Z,14.00
2023-05-05T12:01:41.314Z,13.98
2023-05-05T12:04:12.090Z,13.99
2023-05-05T12:06:39.638Z,14.00
2023-05-05T12:09:07.343Z,13.97
2023-05-05T12:11:33.799Z,13.97
2023-05-05T12:14:10.599Z,13.95
2023-05-05T12:16:38.040Z,13.90
2023-05-05T12:19:06.158Z,13.92
2023-05-05T12:21:33.282Z,13.97
2023-05-05T12:24:00.022Z,13.99
2023-05-05T12:26:27.524Z,13.96
2023-05-05T12:28:54.340Z,13.95
2023-05-05T12:31:26.639Z,13.98
2023-05-05T12:33:53.244Z,14.05
2023-05-05T12:36:20.403Z,14.04
2023-05-05T12:38:46.832Z,14.09
2023-05-05T12:41:18.073Z,14.09
2023-05-05T12:43:44.559Z,14.10
2023-05-05T12:46:12.471Z,14.10
2023-05-05T12:48:41.492Z,14.16
2023-05-05T12:51:19.955Z,14.21
2023-05-05T12:53:49.097Z,14.27
2023-05-05T12:56:32.628Z,14.28
2023-05-05T12:58:59.523Z,14.29
2023-05-05T13:01:25.978Z,14.32
2023-05-05T13:04:12.719Z,14.32
2023-05-05T13:06:47.422Z,14.32
2023-05-05T13:09:24.665Z,14.36
2023-05-05T13:11:51.597Z,14.44
2023-05-05T13:14:18.510Z,14.45
2023-05-05T13:16:45.373Z,14.48
2023-05-05T13:19:11.818Z,14.47
2023-05-05T13:21:38.344Z,14.44
2023-05-05T13:24:21.460Z,14.38
2023-05-05T13:26:52.598Z,14.36
2023-05-05T13:29:19.133Z,14.39
2023-05-05T13:31:45.908Z,14.40
2023-05-05T13:34:12.366Z,14.45
2023-05-05T13:36:39.066Z,14.49
2023-05-05T13:39:11.686Z,14.49
2023-05-05T13:41:38.764Z,14.47
2023-05-05T13:44:05.350Z,14.45
2023-05-05T13:46:31.993Z,14.43
2023-05-05T13:48:58.533Z,14.40
2023-05-05T13:51:25.430Z,14.36
2023-05-05T13:53:52.697Z,14.32
2023-05-05T13:56:19.474Z,14.27
2023-05-05T13:58:46.329Z,14.29
2023-05-05T14:01:12.877Z,14.23
2023-05-05T14:03:39.704Z,14.15
2023-05-05T14:06:07.504Z,14.10
2023-05-05T14:08:34.011Z,14.14
2023-05-05T14:11:00.437Z,14.15
2023-05-05T14:13:26.843Z,14.14
2023-05-05T14:15:54.566Z,14.16
2023-05-05T14:18:21.127Z,14.19
2023-05-05T14:20:47.502Z,14.22
2023-05-05T14:23:13.889Z,14.22
2023-05-05T14:25:40.465Z,14.25
2023-05-05T14:28:07.310Z,14.22
2023-05-05T14:30:33.764Z,14.23
2023-05-05T14:33:01.326Z,14.23
2023-05-05T14:35:28.087Z,14.29
2023-05-05T14:37:54.470Z,14.32
2023-05-05T14:40:20.947Z,14.33
2023-05-05T14:42:47.380Z,14.30
2023-05-05T14:45:13.948Z,14.38
2023-05-05T14:47:40.551Z,14.59
2023-05-05T14:50:09.657Z,14.76
2023-05-05T14:52:39.024Z,15.16
2023-05-05T14:55:06.684Z,15.49
2023-05-05T14:57:33.215Z,15.95
2023-05-05T14:59:59.628Z,16.05
2023-05-05T15:02:26.134Z,16.08
2023-05-05T15:04:53.118Z,15.96
2023-05-05T15:07:20.519Z,15.98
2023-05-05T15:09:47.010Z,15.88
2023-05-05T15:12:13.483Z,15.79
2023-05-05T15:14:40.779Z,15.73
2023-05-05T15:17:07.229Z,15.58
2023-05-05T15:19:33.681Z,15.54
2023-05-05T15:22:00.219Z,15.61
2023-05-05T15:24:26.641Z,15.63
2023-05-05T15:26:53.175Z,15.66
2023-05-05T15:29:19.677Z,15.73
2023-05-05T15:31:46.174Z,15.82
2023-05-05T15:34:12.599Z,15.83
2023-05-05T15:36:39.168Z,15.95
2023-05-05T15:39:05.686Z,16.16
2023-05-05T15:41:34.189Z,16.26
2023-05-05T15:44:02.104Z,16.36
2023-05-05T15:46:32.750Z,16.43
2023-05-05T15:48:59.248Z,16.43
2023-05-05T15:51:26.210Z,16.37
2023-05-05T15:53:53.346Z,16.39
2023-05-05T15:56:19.909Z,16.37
2023-05-05T15:58:46.433Z,16.34
2023-05-05T16:01:12.948Z,16.27
2023-05-05T16:03:39.346Z,16.29
2023-05-05T16:06:06.253Z,16.34
2023-05-05T16:08:32.729Z,16.37
2023-05-05T16:10:59.216Z,16.43
2023-05-05T16:13:25.593Z,16.74
2023-05-05T16:15:52.156Z,17.08
2023-05-05T16:18:18.556Z,17.34
2023-05-05T16:20:45.151Z,17.65
2023-05-05T16:23:11.720Z,17.72
2023-05-05T16:25:38.282Z,17.90
2023-05-05T16:28:04.815Z,18.03
2023-05-05T16:30:31.256Z,18.47
2023-05-05T16:32:57.870Z,18.91
2023-05-05T16:35:24.492Z,19.46
2023-05-05T16:37:50.966Z,19.84
2023-05-05T16:40:17.525Z,20.20
2023-05-05T16:42:44.710Z,20.56
2023-05-05T16:45:11.787Z,20.67
2023-05-05T16:47:38.383Z,20.85
2023-05-05T16:50:05.381Z,20.73
2023-05-05T16:52:31.827Z,20.84
2023-05-05T16:54:58.318Z,21.23
2023-05-05T16:57:24.790Z,21.72
2023-05-05T16:59:51.267Z,21.96
2023-05-05T17:02:17.731Z,22.04
2023-05-05T17:04:44.210Z,22.29
2023-05-05T17:07:10.738Z,22.51
2023-05-05T17:09:37.177Z,22.62
2023-05-05T17:12:04.433Z,22.86
2023-05-05T17:14:31.175Z,22.83
2023-05-05T17:16:57.832Z,23.05
2023-05-05T17:19:24.289Z,23.15
2023-05-05T17:21:50.833Z,22.98
2023-05-05T17:24:17.200Z,23.13
2023-05-05T17:26:43.967Z,23.34
2023-05-05T17:29:12.799Z,23.00
2023-05-05T17:31:39.559Z,23.05
2023-05-05T17:34:06.012Z,23.38
2023-05-05T17:36:33.467Z,23.24
2023-05-05T17:39:00.103Z,23.32
2023-05-05T17:41:32.514Z,23.35
2023-05-05T17:44:01.779Z,22.50
2023-05-05T17:46:28.615Z,21.36
2023-05-05T17:48:55.301Z,20.64
2023-05-05T17:51:21.707Z,20.14
2023-05-05T17:53:48.125Z,19.88
2023-05-05T17:56:14.789Z,19.58
2023-05-05T17:58:41.328Z,19.19
2023-05-05T18:01:07.881Z,18.90
2023-05-05T18:03:34.493Z,18.53
2023-05-05T18:06:02.328Z,18.30
2023-05-05T18:08:28.755Z,18.19
2023-05-05T18:10:55.212Z,18.01
2023-05-05T18:13:21.685Z,17.86
2023-05-05T18:15:48.163Z,17.72
2023-05-05T18:18:14.703Z,17.64
2023-05-05T18:20:41.153Z,17.49
2023-05-05T18:23:07.653Z,17.37
2023-05-05T18:25:34.217Z,17.29
2023-05-05T18:28:00.624Z,17.25
2023-05-05T18:30:27.095Z,17.22
2023-05-05T18:32:53.615Z,17.15
2023-05-05T18:35:21.377Z,17.01
2023-05-05T18:37:47.880Z,16.87
2023-05-05T18:40:14.418Z,16.70
2023-05-05T18:42:41.564Z,16.64
2023-05-05T18:45:10.524Z,16.42
2023-05-05T18:47:39.219Z,16.16
2023-05-05T18:50:06.603Z,15.97
2023-05-05T18:52:33.330Z,15.88
2023-05-05T18:54:59.992Z,15.81
2023-05-05T18:57:27.294Z,15.77
2023-05-05T18:59:53.729Z,15.71
2023-05-05T19:02:20.243Z,15.63
2023-05-05T19:04:46.662Z,15.62
2023-05-05T19:07:23.882Z,15.62
2023-05-05T19:09:57.903Z,15.48
2023-05-05T19:12:24.395Z,15.39
2023-05-05T19:14:50.970Z,15.25
2023-05-05T19:17:17.372Z,15.04
2023-05-05T19:19:43.766Z,14.86
2023-05-05T19:22:10.285Z,14.82
2023-05-05T19:24:36.674Z,14.74
2023-05-05T19:27:03.281Z,14.67
2023-05-05T19:29:31.301Z,14.50
2023-05-05T19:31:57.847Z,14.35
2023-05-05T19:34:24.343Z,14.22
2023-05-05T19:36:50.908Z,14.11
2023-05-05T19:39:17.325Z,14.02
2023-05-05T19:41:43.728Z,13.93
2023-05-05T19:44:10.207Z,13.88
2023-05-05T19:46:36.696Z,13.87
2023-05-05T19:49:03.665Z,13.86
2023-05-05T19:51:31.434Z,13.81
2023-05-05T19:53:59.343Z,13.72
2023-05-05T19:56:26.198Z,13.59
2023-05-05T19:59:00.652Z,13.53
2023-05-05T20:01:28.806Z,13.45
2023-05-05T20:03:56.524Z,13.41
2023-05-05T20:06:23.272Z,13.38
2023-05-05T20:08:49.710Z,13.36
2023-05-05T20:11:16.972Z,13.26
2023-05-05T20:13:43.501Z,13.21
2023-05-05T20:16:10.273Z,13.22
2023-05-05T20:18:36.725Z,13.15
2023-05-05T20:21:03.599Z,13.15
2023-05-05T20:23:30.236Z,13.12
2023-05-05T20:25:57.198Z,13.09
2023-05-05T20:28:23.815Z,13.01
2023-05-05T20:30:50.503Z,12.87
2023-05-05T20:33:17.016Z,12.78
2023-05-05T20:35:43.550Z,12.72
2023-05-05T20:38:10.078Z,12.70
2023-05-05T20:40:36.780Z,12.60
2023-05-05T20:43:03.254Z,12.50
2023-05-05T20:45:31.636Z,12.48
2023-05-05T20:47:59.872Z,12.46
2023-05-05T20:50:26.354Z,12.44
2023-05-05T20:52:52.752Z,12.43
2023-05-05T20:55:19.337Z,12.38
2023-05-05T20:57:46.009Z,12.33
2023-05-05T21:00:12.561Z,12.36
2023-05-05T21:02:39.307Z,12.34
2023-05-05T21:05:06.562Z,12.28
2023-05-05T21:07:34.187Z,12.21
2023-05-05T21:10:02.349Z,12.15
2023-05-05T21:12:29.488Z,12.10
2023-05-05T21:14:58.450Z,12.07
2023-05-05T21:17:28.406Z,12.02
2023-05-05T21:19:55.989Z,11.95
2023-05-05T21:22:22.458Z,11.90
2023-05-05T21:24:49.282Z,11.86
2023-05-05T21:27:15.940Z,11.89
2023-05-05T21:29:42.329Z,11.84
2023-05-05T21:32:10.484Z,11.84
2023-05-05T21:34:37.876Z,11.81
2023-05-05T21:37:05.524Z,11.80
2023-05-05T21:39:33.218Z,11.75
2023-05-05T21:42:01.011Z,11.71
2023-05-05T21:44:28.233Z,11.67
2023-05-05T21:46:55.368Z,11.63
2023-05-05T21:49:21.908Z,11.60
2023-05-05T21:51:48.328Z,11.61
2023-05-05T21:54:14.787Z,11.59
2023-05-05T21:56:41.306Z,11.47
2023-05-05T21:59:07.810Z,11.37
2023-05-05T22:01:34.935Z,11.38
2023-05-05T22:04:01.564Z,11.37
2023-05-05T22:06:28.281Z,11.38
2023-05-05T22:08:54.778Z,11.34
2023-05-05T22:11:21.351Z,11.33
2023-05-05T22:13:47.739Z,11.28
2023-05-05T22:16:16.354Z,11.21
2023-05-05T22:18:43.042Z,11.21
2023-05-05T22:21:09.409Z,11.16
2023-05-05T22:23:37.089Z,11.05
2023-05-05T22:26:04.833Z,10.98
2023-05-05T22:28:31.579Z,11.00
2023-05-05T22:30:58.137Z,11.01
2023-05-05T22:33:24.600Z,11.06
2023-05-05T22:35:52.005Z,11.07
2023-05-05T22:38:18.445Z,11.11
2023-05-05T22:40:45.294Z,11.09
2023-05-05T22:43:11.900Z,11.09
2023-05-05T22:45:38.339Z,11.12
2023-05-05T22:48:05.212Z,11.13
2023-05-05T22:50:31.637Z,11.12
2023-05-05T22:52:58.038Z,11.14
2023-05-05T22:55:24.867Z,11.16
2023-05-05T22:57:52.450Z,11.19
2023-05-05T23:00:19.118Z,11.14
2023-05-05T23:02:45.751Z,11.20
2023-05-05T23:05:12.613Z,11.18
2023-05-05T23:07:39.333Z,11.17
2023-05-05T23:10:06.289Z,11.15
2023-05-05T23:12:32.877Z,11.14
2023-05-05T23:14:59.358Z,11.15
2023-05-05T23:17:25.776Z,11.19
2023-05-05T23:19:52.160Z,11.22
2023-05-05T23:22:18.538Z,11.23
2023-05-05T23:24:45.151Z,11.24
2023-05-05T23:27:12.314Z,11.21
2023-05-05T23:29:38.753Z,11.20
2023-05-05T23:32:05.739Z,11.16
2023-05-05T23:34:32.158Z,11.16
2023-05-05T23:36:58.695Z,11.18
2023-05-05T23:39:25.119Z,11.14
2023-05-05T23:41:51.588Z,11.08
2023-05-05T23:44:17.938Z,11.03
2023-05-05T23:46:44.541Z,11.05
2023-05-05T23:49:11.094Z,11.01
2023-05-05T23:51:37.504Z,11.04
2023-05-05T23:54:04.065Z,11.05
2023-05-05T23:56:30.979Z,11.05
2023-05-05T23:58:57.398Z,11.04
